createdAt,value
2022-08-07T00:02:37.444Z,16.01
2022-08-07T00:04:00.783Z,15.96
2022-08-07T00:06:33.550Z,15.93
2022-08-07T00:09:16.632Z,15.94
2022-08-07T00:11:54.169Z,15.98
2022-08-07T00:14:30.558Z,15.91
2022-08-07T00:17:02.410Z,15.87
2022-08-07T00:19:59.686Z,15.83
2022-08-07T00:22:34.512Z,15.85
2022-08-07T00:25:06.981Z,15.76
2022-08-07T00:27:51.897Z,15.80
2022-08-07T00:30:26.413Z,15.70
2022-08-07T00:32:59.948Z,15.80
2022-08-07T00:35:30.017Z,15.70
2022-08-07T00:37:57.514Z,15.73
2022-08-07T00:40:39.522Z,15.68
2022-08-07T00:43:59.156Z,15.81
2022-08-07T00:45:58.237Z,15.68
2022-08-07T00:48:25.131Z,15.59
2022-08-07T00:50:59.270Z,15.61
2022-08-07T00:53:26.769Z,15.62
2022-08-07T00:56:13.704Z,15.68
2022-08-07T00:58:46.932Z,15.60
2022-08-07T01:01:14.629Z,15.59
2022-08-07T01:03:57.126Z,15.66
2022-08-07T01:06:28.441Z,15.53
2022-08-07T01:08:56.380Z,15.56
2022-08-07T01:12:23.514Z,15.52
2022-08-07T01:14:16.616Z,15.45
2022-08-07T01:16:47.145Z,15.47
2022-08-07T01:19:19.181Z,15.50
2022-08-07T01:21:53.405Z,15.34
2022-08-07T01:24:22.962Z,15.44
2022-08-07T01:26:52.076Z,15.31
2022-08-07T01:29:19.982Z,15.34
2022-08-07T01:31:48.654Z,15.35
2022-08-07T01:34:17.857Z,15.35
2022-08-07T01:36:52.655Z,15.38
2022-08-07T01:39:40.452Z,15.33
2022-08-07T01:42:40.149Z,15.28
2022-08-07T01:45:09.710Z,15.32
2022-08-07T01:48:18.090Z,15.25
2022-08-07T01:50:30.327Z,15.23
2022-08-07T01:52:58.784Z,15.24
2022-08-07T01:55:28.513Z,15.22
2022-08-07T01:58:05.415Z,15.16
2022-08-07T02:00:51.342Z,15.25
2022-08-07T02:03:26.402Z,15.28
2022-08-07T02:06:09.085Z,15.12
2022-08-07T02:08:54.371Z,15.17
2022-08-07T02:11:57.658Z,15.14
2022-08-07T02:14:11.173Z,15.10
2022-08-07T02:16:58.721Z,15.02
2022-08-07T02:20:06.840Z,14.93
2022-08-07T02:22:13.599Z,14.94
2022-08-07T02:24:46.306Z,14.95
2022-08-07T02:27:18.909Z,14.95
2022-08-07T02:29:53.906Z,14.97
2022-08-07T02:32:23.503Z,14.87
2022-08-07T02:34:54.454Z,14.96
2022-08-07T02:37:21.956Z,14.99
2022-08-07T02:40:11.979Z,14.92
2022-08-07T02:42:37.387Z,14.88
2022-08-07T02:45:59.271Z,14.86
2022-08-07T02:47:54.573Z,14.84
2022-08-07T02:50:26.305Z,14.82
2022-08-07T02:53:06.135Z,14.91
2022-08-07T02:56:03.472Z,14.88
2022-08-07T02:58:27.273Z,14.82
2022-08-07T03:00:57.435Z,14.77
2022-08-07T03:03:29.621Z,14.74
2022-08-07T03:06:16.476Z,14.66
2022-08-07T03:08:43.683Z,14.68
2022-08-07T03:11:11.017Z,14.68
2022-08-07T03:13:38.986Z,14.63
2022-08-07T03:16:16.456Z,14.51
2022-08-07T03:18:44.669Z,14.63
2022-08-07T03:21:18.848Z,14.62
2022-08-07T03:24:17.897Z,14.59
2022-08-07T03:26:35.971Z,14.43
2022-08-07T03:29:14.666Z,14.49
2022-08-07T03:31:46.191Z,14.46
2022-08-07T03:34:18.619Z,14.37
2022-08-07T03:36:51.659Z,14.36
2022-08-07T03:39:59.095Z,14.32
2022-08-07T03:42:07.503Z,14.34
2022-08-07T03:44:36.476Z,14.32
2022-08-07T03:47:11.509Z,14.14
2022-08-07T03:49:42.460Z,14.10
2022-08-07T03:52:17.664Z,14.20
2022-08-07T03:54:54.861Z,14.21
2022-08-07T03:58:33.315Z,14.14
2022-08-07T04:00:10.510Z,14.16
2022-08-07T04:02:41.111Z,14.21
2022-08-07T04:05:08.627Z,14.12
2022-08-07T04:07:41.855Z,14.03
2022-08-07T04:10:15.724Z,14.10
2022-08-07T04:12:47.356Z,14.07
2022-08-07T04:15:15.840Z,14.00
2022-08-07T04:18:58.219Z,14.06
2022-08-07T04:20:31.299Z,14.10
2022-08-07T04:23:02.216Z,13.90
2022-08-07T04:25:35.793Z,13.98
2022-08-07T04:28:08.131Z,13.90
2022-08-07T04:30:55.166Z,13.93
2022-08-07T04:33:24.231Z,13.92
2022-08-07T04:35:53.984Z,13.95
2022-08-07T04:38:21.821Z,13.86
2022-08-07T04:40:52.257Z,13.85
2022-08-07T04:44:09.609Z,13.93
2022-08-07T04:46:34.474Z,13.89
2022-08-07T04:49:18.027Z,13.93
2022-08-07T04:52:03.384Z,13.87
2022-08-07T04:55:00.391Z,13.96
2022-08-07T04:58:16.698Z,13.90
2022-08-07T05:00:40.946Z,13.97
2022-08-07T05:03:17.108Z,13.94
2022-08-07T05:06:16.438Z,13.96
2022-08-07T05:09:01.187Z,14.06
2022-08-07T05:11:58.453Z,13.97
2022-08-07T05:14:56.532Z,13.99
2022-08-07T05:17:52.231Z,14.05
2022-08-07T05:20:09.975Z,14.08
2022-08-07T05:22:39.130Z,14.07
2022-08-07T05:25:08.687Z,14.03
2022-08-07T05:28:16.274Z,14.14
2022-08-07T05:30:32.842Z,14.19
2022-08-07T05:33:03.401Z,14.14
2022-08-07T05:35:42.048Z,14.22
2022-08-07T05:38:10.551Z,14.16
2022-08-07T05:40:49.554Z,14.16
2022-08-07T05:43:19.251Z,14.18
2022-08-07T05:46:06.103Z,14.27
2022-08-07T05:48:32.755Z,14.40
2022-08-07T05:51:01.701Z,14.42
2022-08-07T05:54:09.346Z,14.45
2022-08-07T05:56:19.037Z,14.44
2022-08-07T05:58:49.423Z,14.51
2022-08-07T06:01:20.827Z,14.41
2022-08-07T06:03:59.001Z,14.41
2022-08-07T06:06:29.692Z,14.50
2022-08-07T06:08:59.361Z,14.53
2022-08-07T06:11:26.511Z,14.69
2022-08-07T06:14:11.953Z,14.68
2022-08-07T06:16:43.864Z,14.66
2022-08-07T06:19:17.904Z,14.82
2022-08-07T06:22:16.971Z,14.84
2022-08-07T06:24:52.187Z,14.88
2022-08-07T06:27:44.003Z,14.95
2022-08-07T06:30:32.145Z,15.07
2022-08-07T06:32:59.036Z,15.18
2022-08-07T06:35:25.519Z,15.29
2022-08-07T06:38:08.151Z,15.51
2022-08-07T06:40:46.700Z,15.65
2022-08-07T06:43:21.638Z,15.83
2022-08-07T06:45:49.583Z,16.16
2022-08-07T06:48:24.675Z,16.51
2022-08-07T06:50:53.210Z,16.98
2022-08-07T06:55:28.725Z,17.59
2022-08-07T06:56:15.061Z,18.22
2022-08-07T07:00:11.971Z,18.76
2022-08-07T07:01:44.170Z,18.89
2022-08-07T07:04:32.489Z,19.18
2022-08-07T07:07:01.867Z,19.54
2022-08-07T07:09:30.874Z,19.46
2022-08-07T07:12:19.603Z,19.93
2022-08-07T07:14:56.222Z,20.18
2022-08-07T07:17:38.669Z,20.25
2022-08-07T07:20:11.848Z,20.60
2022-08-07T07:24:08.414Z,20.42
2022-08-07T07:26:33.237Z,21.01
2022-08-07T07:28:29.909Z,21.12
2022-08-07T07:31:17.291Z,21.70
2022-08-07T07:33:56.407Z,21.87
2022-08-07T07:36:25.053Z,21.94
2022-08-07T07:39:01.071Z,22.02
2022-08-07T07:41:50.365Z,22.16
2022-08-07T07:44:26.134Z,22.91
2022-08-07T07:47:04.406Z,23.29
2022-08-07T07:50:36.531Z,23.68
2022-08-07T07:52:30.148Z,23.85
2022-08-07T07:54:57.788Z,23.86
2022-08-07T07:57:43.989Z,23.98
2022-08-07T08:00:18.287Z,24.36
2022-08-07T08:03:04.644Z,23.65
2022-08-07T08:05:53.614Z,24.40
2022-08-07T08:08:33.796Z,24.64
2022-08-07T08:11:05.799Z,24.79
2022-08-07T08:13:54.831Z,25.09
2022-08-07T08:16:30.059Z,25.63
2022-08-07T08:19:00.471Z,25.52
2022-08-07T08:22:03.114Z,24.93
2022-08-07T08:25:04.691Z,24.82
2022-08-07T08:27:55.985Z,25.48
2022-08-07T08:30:24.325Z,25.43
2022-08-07T08:32:54.282Z,25.69
2022-08-07T08:35:25.604Z,26.52
2022-08-07T08:38:01.604Z,26.59
2022-08-07T08:40:38.846Z,26.80
2022-08-07T08:43:20.142Z,27.21
2022-08-07T08:45:59.299Z,26.87
2022-08-07T08:49:01.888Z,27.12
2022-08-07T08:51:49.482Z,27.18
2022-08-07T08:54:28.399Z,27.45
2022-08-07T08:56:58.943Z,27.67
2022-08-07T08:59:42.313Z,28.14
2022-08-07T09:02:36.776Z,28.28
2022-08-07T09:05:22.515Z,28.43
2022-08-07T09:08:28.344Z,28.53
2022-08-07T09:11:24.771Z,27.66
2022-08-07T09:14:20.359Z,28.46
2022-08-07T09:17:10.541Z,28.72
2022-08-07T09:20:34.708Z,28.65
2022-08-07T09:24:33.302Z,28.85
2022-08-07T09:26:03.916Z,27.81
2022-08-07T09:30:00.734Z,29.01
2022-08-07T09:31:38.479Z,29.49
2022-08-07T09:34:21.447Z,28.72
2022-08-07T09:36:59.803Z,28.99
2022-08-07T09:39:58.015Z,28.65
2022-08-07T09:43:03.008Z,29.15
2022-08-07T09:47:24.493Z,28.58
2022-08-07T09:50:00.666Z,29.33
2022-08-07T09:52:16.513Z,29.25
2022-08-07T09:54:53.494Z,29.79
2022-08-07T09:57:36.567Z,29.87
2022-08-07T10:00:08.653Z,29.85
2022-08-07T10:04:05.847Z,30.38
2022-08-07T10:06:12.216Z,29.43
2022-08-07T10:09:15.440Z,30.36
2022-08-07T10:12:15.155Z,30.17
2022-08-07T10:15:04.844Z,28.50
2022-08-07T10:18:10.628Z,27.38
2022-08-07T10:20:57.295Z,27.91
2022-08-07T10:24:04.746Z,27.33
2022-08-07T10:26:35.728Z,29.07
2022-08-07T10:29:30.431Z,29.61
2022-08-07T10:32:05.363Z,30.10
2022-08-07T10:35:12.406Z,29.76
2022-08-07T10:38:20.916Z,29.69
2022-08-07T10:41:07.895Z,30.19
2022-08-07T10:44:19.390Z,29.57
2022-08-07T10:47:03.353Z,28.08
2022-08-07T10:49:49.901Z,26.81
2022-08-07T10:52:52.820Z,26.45
2022-08-07T10:55:38.349Z,26.65
2022-08-07T10:58:33.305Z,26.91
2022-08-07T11:01:35.886Z,28.29
2022-08-07T11:04:34.709Z,29.15
2022-08-07T11:07:58.389Z,29.19
2022-08-07T11:10:27.678Z,29.00
2022-08-07T11:13:07.620Z,28.43
2022-08-07T11:15:57.234Z,28.75
2022-08-07T11:18:35.357Z,28.86
2022-08-07T11:21:14.251Z,29.86
2022-08-07T11:23:59.215Z,28.95
2022-08-07T11:26:33.668Z,27.84
2022-08-07T11:29:41.993Z,26.71
2022-08-07T11:32:25.456Z,26.45
2022-08-07T11:34:59.489Z,28.11
2022-08-07T11:38:12.407Z,28.80
2022-08-07T11:40:39.467Z,29.27
2022-08-07T11:43:18.601Z,29.56
2022-08-07T11:46:36.634Z,29.08
2022-08-07T11:49:51.392Z,28.32
2022-08-07T11:52:37.697Z,28.99
2022-08-07T11:55:19.085Z,29.20
2022-08-07T11:58:33.497Z,29.66
2022-08-07T12:01:06.954Z,29.74
2022-08-07T12:03:53.108Z,29.82
2022-08-07T12:06:51.817Z,30.00
2022-08-07T12:09:35.161Z,30.06
2022-08-07T12:12:11.095Z,29.84
2022-08-07T12:15:17.367Z,29.73
2022-08-07T12:18:16.105Z,29.63
2022-08-07T12:21:02.069Z,29.58
2022-08-07T12:24:05.294Z,30.15
2022-08-07T12:26:50.560Z,30.19
2022-08-07T12:29:37.646Z,29.55
2022-08-07T12:32:19.436Z,29.29
2022-08-07T12:34:49.373Z,29.83
2022-08-07T12:37:28.440Z,28.90
2022-08-07T12:40:29.799Z,29.35
2022-08-07T12:42:59.004Z,29.04
2022-08-07T12:45:53.172Z,29.37
2022-08-07T12:48:28.832Z,28.01
2022-08-07T12:51:51.217Z,26.83
2022-08-07T12:54:38.933Z,28.56
2022-08-07T12:57:10.325Z,29.14
2022-08-07T12:59:55.012Z,29.40
2022-08-07T13:02:50.811Z,28.86
2022-08-07T13:06:02.951Z,29.15
2022-08-07T13:08:34.324Z,29.05
2022-08-07T13:11:08.722Z,29.17
2022-08-07T13:14:05.939Z,29.08
2022-08-07T13:16:46.903Z,28.39
2022-08-07T13:19:45.883Z,28.63
2022-08-07T13:22:33.143Z,28.49
2022-08-07T13:25:23.954Z,28.50
2022-08-07T13:28:11.141Z,29.05
2022-08-07T13:30:48.962Z,28.60
2022-08-07T13:34:32.730Z,28.66
2022-08-07T13:36:25.787Z,28.01
2022-08-07T13:39:12.690Z,26.95
2022-08-07T13:41:54.961Z,26.98
2022-08-07T13:44:26.764Z,27.47
2022-08-07T13:47:04.917Z,27.75
2022-08-07T13:50:32.842Z,27.62
2022-08-07T13:52:38.083Z,27.65
2022-08-07T13:55:19.590Z,27.73
2022-08-07T13:58:27.676Z,27.70
2022-08-07T14:01:00.917Z,27.13
2022-08-07T14:04:07.310Z,26.77
2022-08-07T14:06:37.080Z,26.14
2022-08-07T14:09:06.376Z,26.54
2022-08-07T14:11:53.767Z,26.93
2022-08-07T14:14:44.985Z,27.02
2022-08-07T14:17:51.476Z,27.16
2022-08-07T14:20:40.440Z,27.20
2022-08-07T14:23:08.516Z,27.01
2022-08-07T14:25:39.361Z,26.87
2022-08-07T14:28:14.804Z,27.05
2022-08-07T14:30:47.081Z,26.82
2022-08-07T14:33:22.464Z,26.79
2022-08-07T14:35:55.619Z,26.93
2022-08-07T14:38:30.882Z,26.87
2022-08-07T14:41:02.273Z,26.93
2022-08-07T14:43:58.428Z,26.76
2022-08-07T14:46:31.169Z,26.60
2022-08-07T14:49:00.139Z,26.50
2022-08-07T14:52:03.170Z,26.54
2022-08-07T14:54:41.693Z,26.68
2022-08-07T14:57:19.041Z,26.61
2022-08-07T15:00:04.805Z,26.61
2022-08-07T15:02:35.110Z,26.19
2022-08-07T15:05:04.811Z,26.24
2022-08-07T15:10:36.526Z,26.14
2022-08-07T15:13:35.841Z,26.11
2022-08-07T15:16:31.035Z,26.10
2022-08-07T15:19:01.593Z,26.28
2022-08-07T15:21:44.869Z,26.19
2022-08-07T15:25:16.381Z,26.17
2022-08-07T15:27:23.616Z,25.80
2022-08-07T15:30:06.526Z,25.84
2022-08-07T15:33:01.349Z,25.89
2022-08-07T15:36:01.986Z,25.87
2022-08-07T15:44:09.017Z,25.49
2022-08-07T15:46:51.778Z,25.46
2022-08-07T15:50:05.154Z,25.31
2022-08-07T15:52:16.994Z,25.35
2022-08-07T15:54:44.996Z,25.37
2022-08-07T15:57:39.672Z,25.32
2022-08-07T16:00:06.938Z,25.25
2022-08-07T16:02:46.554Z,25.24
2022-08-07T16:05:18.395Z,25.29
2022-08-07T16:08:33.590Z,25.14
2022-08-07T16:11:02.597Z,24.82
2022-08-07T16:13:59.382Z,24.81
2022-08-07T16:16:51.484Z,24.82
2022-08-07T16:19:58.694Z,24.44
2022-08-07T16:22:33.692Z,24.46
2022-08-07T16:25:54.716Z,24.56
2022-08-07T16:30:06.616Z,24.27
2022-08-07T16:31:49.813Z,24.43
2022-08-07T16:34:24.053Z,24.57
2022-08-07T16:37:02.444Z,24.31
2022-08-07T16:40:28.936Z,24.21
2022-08-07T16:44:04.312Z,24.43
2022-08-07T16:50:28.508Z,24.22
2022-08-07T16:53:14.934Z,24.23
2022-08-07T16:56:03.176Z,24.20
2022-08-07T16:59:14.538Z,24.23
2022-08-07T17:01:42.331Z,24.19
2022-08-07T17:04:24.463Z,23.99
2022-08-07T17:07:03.094Z,23.98
2022-08-07T17:10:33.084Z,23.87
2022-08-07T17:13:41.786Z,23.99
2022-08-07T17:16:18.029Z,23.96
2022-08-07T17:18:56.869Z,23.93
2022-08-07T17:21:28.937Z,23.96
2022-08-07T17:24:48.713Z,23.90
2022-08-07T17:27:32.630Z,23.87
2022-08-07T17:30:15.025Z,23.72
2022-08-07T17:34:09.066Z,23.76
2022-08-07T17:36:20.242Z,23.68
2022-08-07T17:39:10.015Z,23.71
2022-08-07T17:42:16.968Z,23.53
2022-08-07T17:44:54.702Z,23.54
2022-08-07T17:47:44.487Z,23.59
2022-08-07T17:50:35.355Z,23.32
2022-08-07T17:53:23.759Z,23.08
2022-08-07T17:56:28.750Z,23.24
2022-08-07T17:58:59.188Z,23.33
2022-08-07T18:01:36.607Z,23.23
2022-08-07T18:04:31.172Z,22.95
2022-08-07T18:07:19.972Z,22.91
2022-08-07T18:10:06.288Z,22.87
2022-08-07T18:12:50.253Z,22.88
2022-08-07T18:15:32.692Z,22.98
2022-08-07T18:18:45.210Z,22.85
2022-08-07T18:21:39.203Z,22.66
2022-08-07T18:24:36.907Z,22.59
2022-08-07T18:27:06.628Z,22.45
2022-08-07T18:30:08.245Z,22.14
2022-08-07T18:33:16.010Z,22.17
2022-08-07T18:35:57.533Z,22.13
2022-08-07T18:38:55.245Z,22.03
2022-08-07T18:41:53.938Z,21.92
2022-08-07T18:45:09.248Z,21.71
2022-08-07T18:47:44.805Z,21.64
2022-08-07T18:50:39.717Z,21.74
2022-08-07T18:53:36.495Z,21.63
2022-08-07T18:56:35.377Z,21.41
2022-08-07T18:59:46.860Z,21.50
2022-08-07T19:02:36.905Z,21.29
2022-08-07T19:05:22.346Z,21.23
2022-08-07T19:07:59.591Z,21.18
2022-08-07T19:10:49.853Z,21.12
2022-08-07T19:13:55.052Z,21.06
2022-08-07T19:17:00.404Z,20.88
2022-08-07T19:19:35.387Z,20.71
2022-08-07T19:22:31.037Z,20.59
2022-08-07T19:24:58.774Z,20.55
2022-08-07T19:30:54.165Z,20.50
2022-08-07T19:30:55.247Z,20.45
2022-08-07T19:33:15.463Z,20.35
2022-08-07T19:35:46.141Z,20.24
2022-08-07T19:38:17.687Z,20.11
2022-08-07T19:40:50.075Z,19.98
2022-08-07T19:43:21.758Z,19.93
2022-08-07T19:46:10.679Z,19.97
2022-08-07T19:48:42.838Z,19.92
2022-08-07T19:51:19.467Z,19.79
2022-08-07T19:54:34.268Z,19.73
2022-08-07T19:58:00.936Z,19.69
2022-08-07T19:59:40.825Z,19.64
2022-08-07T20:02:19.059Z,19.59
2022-08-07T20:04:50.097Z,19.48
2022-08-07T20:07:23.663Z,19.40
2022-08-07T20:10:36.904Z,19.39
2022-08-07T20:12:54.917Z,19.21
2022-08-07T20:15:32.932Z,19.24
2022-08-07T20:18:06.311Z,19.19
2022-08-07T20:20:42.072Z,19.03
2022-08-07T20:23:23.122Z,19.02
2022-08-07T20:26:04.437Z,19.01
2022-08-07T20:28:39.684Z,18.93
2022-08-07T20:31:21.461Z,18.92
2022-08-07T20:33:56.510Z,18.93
2022-08-07T20:36:27.217Z,18.90
2022-08-07T20:38:59.757Z,18.86
2022-08-07T20:41:34.109Z,18.82
2022-08-07T20:44:12.376Z,18.80
2022-08-07T20:46:44.601Z,18.69
2022-08-07T20:49:58.400Z,18.71
2022-08-07T20:52:01.886Z,18.72
2022-08-07T20:54:33.121Z,18.65
2022-08-07T20:57:08.157Z,18.62
2022-08-07T21:00:08.219Z,18.59
2022-08-07T21:02:54.306Z,18.47
2022-08-07T21:05:51.126Z,18.55
2022-08-07T21:08:32.405Z,18.46
2022-08-07T21:11:10.450Z,18.26
2022-08-07T21:13:57.645Z,18.31
2022-08-07T21:16:29.285Z,18.37
2022-08-07T21:18:59.823Z,18.29
2022-08-07T21:21:30.803Z,18.25
2022-08-07T21:24:16.976Z,18.19
2022-08-07T21:27:00.900Z,18.22
2022-08-07T21:29:53.096Z,18.15
2022-08-07T21:32:47.635Z,18.16
2022-08-07T21:35:34.470Z,18.10
2022-08-07T21:38:27.770Z,17.97
2022-08-07T21:41:10.848Z,17.84
2022-08-07T21:43:55.834Z,17.89
2022-08-07T21:46:36.082Z,17.87
2022-08-07T21:49:40.706Z,17.80
2022-08-07T21:52:36.193Z,17.83
2022-08-07T21:55:12.060Z,17.73
2022-08-07T21:58:01.353Z,17.73
2022-08-07T22:00:31.339Z,17.74
2022-08-07T22:03:17.095Z,17.75
2022-08-07T22:05:58.781Z,17.50
2022-08-07T22:08:33.882Z,17.60
2022-08-07T22:11:04.466Z,17.68
2022-08-07T22:13:51.095Z,17.78
2022-08-07T22:16:38.835Z,17.68
2022-08-07T22:19:30.044Z,17.68
2022-08-07T22:22:21.275Z,17.62
2022-08-07T22:25:18.359Z,17.58
2022-08-07T22:28:02.933Z,17.64
2022-08-07T22:30:54.835Z,17.60
2022-08-07T22:33:52.707Z,17.60
2022-08-07T22:36:54.032Z,17.50
2022-08-07T22:39:53.391Z,17.35
2022-08-07T22:42:25.975Z,17.44
2022-08-07T22:44:59.750Z,17.39
2022-08-07T22:47:45.128Z,17.32
2022-08-07T22:50:35.629Z,17.37
2022-08-07T22:54:07.049Z,17.32
2022-08-07T22:57:03.733Z,17.27
2022-08-07T22:59:49.743Z,17.35
2022-08-07T23:02:28.805Z,17.22
2022-08-07T23:06:08.274Z,17.31
2022-08-07T23:08:24.492Z,17.22
2022-08-07T23:11:15.578Z,17.23
2022-08-07T23:14:15.052Z,17.19
2022-08-07T23:17:12.677Z,17.24
2022-08-07T23:20:51.393Z,17.22
2022-08-07T23:24:05.261Z,17.11
2022-08-07T23:26:23.439Z,17.04
2022-08-07T23:29:42.574Z,17.09
2022-08-07T23:34:22.386Z,17.06
2022-08-07T23:35:37.260Z,17.05
2022-08-07T23:38:36.848Z,16.97
2022-08-07T23:41:47.609Z,17.01
2022-08-07T23:45:03.185Z,17.00
2022-08-07T23:47:42.471Z,16.95
2022-08-07T23:50:22.409Z,16.93
2022-08-07T23:53:19.626Z,16.89
2022-08-07T23:55:55.630Z,16.79
2022-08-07T23:58:44.006Z,16.85
